Airfield :
LOGIN :

Register | Disclaimer

   EN    FR    IT 

 










Legend :    VFR   Marginal VFR   IFR   Intensive IFR   Very Intensive IFR
Visi :
Ceiling :
>= 8 km
>= 3000ft
5 to 8 km
1000 to 3000 ft
1500m to 5 km
500 to 1000 ft
800 to 1500m
200 to 500 ft
< 800m
< 200 ft
Symbols :   Thunderstorms  Fog  Heavy snow  Heavy precipitations  Wind > 20 kt
SIGMETs :     Misc.  Thunderstorms  Icing  Turbulence  Mountain Waves  Volcanic Ashes







- Airport Elevation : 510 ft


LJCE - Cerklje

CURRENT METAR :
  • 120800Z 24004KT CAVOK M02/M05 Q1019 RMK BLU

EXPIRED METARs :
  • 120730Z 24003KT 180V270 CAVOK M02/M05 Q1019 R09/CLRD// RMK BLU
  • 120700Z 28003KT 240V320 CAVOK M03/M05 Q1019 R09/CLRD// RMK BLU
  • 120630Z 24004KT CAVOK M03/M05 Q1019 RMK BLU
  • 120600Z 28004KT 240V310 CAVOK M02/M04 Q1019 RMK BLU
  • 120530Z 29005KT CAVOK M02/M04 Q1019 RMK BLU

TAF TAF LJCE
Valid from the 12 at 06:00 until the 12 at 15:00 UTC


120500Z 1206/1215 23003KT CAVOK
TEMPO 1208/1215 SCT060
No reported NOTAMs for that airfield.



MET'MAP, your aeronautical weather chart ! - Copyright ORBIFLY December 2007 - Disclaimer

ORBIFLY MET'MAP TEAM :

Programming & Development : Alexandra Zaïnal
Concept & Development : Baudouin d'Aumeries
Co-Development & Prog : Marc-Olivier Méhu
Technical & hardware support : Manuel Goepfert

Contact : metmap@orbifly.com




SOURCES & CREDITS :

   NOAA